sensor_id;sensor_type;location;lat;lon;timestamp;P1;durP1;ratioP1;P2;durP2;ratioP2
28304;SDS011;15569;42.652;23.040;2023-02-15T00:01:40;41.85;;;17.35;;
28304;SDS011;15569;42.652;23.040;2023-02-15T00:04:07;35.13;;;15.93;;
28304;SDS011;15569;42.652;23.040;2023-02-15T00:06:34;26.80;;;13.07;;
28304;SDS011;15569;42.652;23.040;2023-02-15T00:08:59;30.10;;;15.02;;
28304;SDS011;15569;42.652;23.040;2023-02-15T00:11:25;37.72;;;16.13;;
28304;SDS011;15569;42.652;23.040;2023-02-15T00:14:23;36.45;;;15.48;;
28304;SDS011;15569;42.652;23.040;2023-02-15T00:16:50;36.38;;;14.48;;
28304;SDS011;15569;42.652;23.040;2023-02-15T00:19:17;44.50;;;17.15;;
28304;SDS011;15569;42.652;23.040;2023-02-15T00:21:44;40.28;;;15.43;;
28304;SDS011;15569;42.652;23.040;2023-02-15T00:24:11;33.35;;;14.45;;
28304;SDS011;15569;42.652;23.040;2023-02-15T00:26:41;34.13;;;13.93;;
28304;SDS011;15569;42.652;23.040;2023-02-15T00:29:08;36.60;;;15.02;;
28304;SDS011;15569;42.652;23.040;2023-02-15T00:31:34;36.13;;;14.32;;
28304;SDS011;15569;42.652;23.040;2023-02-15T00:34:22;30.90;;;14.20;;
28304;SDS011;15569;42.652;23.040;2023-02-15T00:36:47;33.97;;;15.57;;
28304;SDS011;15569;42.652;23.040;2023-02-15T00:39:13;36.75;;;15.07;;
28304;SDS011;15569;42.652;23.040;2023-02-15T00:41:39;35.83;;;14.32;;
28304;SDS011;15569;42.652;23.040;2023-02-15T00:44:05;33.97;;;15.82;;
28304;SDS011;15569;42.652;23.040;2023-02-15T00:46:31;33.83;;;14.10;;
28304;SDS011;15569;42.652;23.040;2023-02-15T00:48:57;32.17;;;14.35;;
28304;SDS011;15569;42.652;23.040;2023-02-15T00:51:23;29.70;;;14.25;;
28304;SDS011;15569;42.652;23.040;2023-02-15T00:53:49;36.65;;;15.13;;
28304;SDS011;15569;42.652;23.040;2023-02-15T00:56:14;31.92;;;14.85;;
28304;SDS011;15569;42.652;23.040;2023-02-15T00:58:40;35.42;;;15.13;;
28304;SDS011;15569;42.652;23.040;2023-02-15T01:01:09;35.47;;;13.63;;
28304;SDS011;15569;42.652;23.040;2023-02-15T01:03:36;37.80;;;15.90;;
28304;SDS011;15569;42.652;23.040;2023-02-15T01:06:02;33.15;;;14.98;;
28304;SDS011;15569;42.652;23.040;2023-02-15T01:08:28;28.90;;;14.85;;
28304;SDS011;15569;42.652;23.040;2023-02-15T01:10:54;33.78;;;13.98;;
28304;SDS011;15569;42.652;23.040;2023-02-15T01:13:19;34.17;;;14.57;;
28304;SDS011;15569;42.652;23.040;2023-02-15T01:15:45;35.55;;;15.02;;
28304;SDS011;15569;42.652;23.040;2023-02-15T01:18:11;35.60;;;14.10;;
28304;SDS011;15569;42.652;23.040;2023-02-15T01:20:37;29.60;;;13.57;;
28304;SDS011;15569;42.652;23.040;2023-02-15T01:23:06;22.55;;;10.25;;
28304;SDS011;15569;42.652;23.040;2023-02-15T01:25:33;28.95;;;13.27;;
28304;SDS011;15569;42.652;23.040;2023-02-15T01:28:00;32.17;;;14.13;;
28304;SDS011;15569;42.652;23.040;2023-02-15T01:30:26;33.03;;;13.88;;
28304;SDS011;15569;42.652;23.040;2023-02-15T01:32:51;29.33;;;13.63;;
28304;SDS011;15569;42.652;23.040;2023-02-15T01:35:17;29.83;;;12.73;;
28304;SDS011;15569;42.652;23.040;2023-02-15T01:37:42;30.98;;;13.02;;
28304;SDS011;15569;42.652;23.040;2023-02-15T01:40:08;37.97;;;15.35;;
28304;SDS011;15569;42.652;23.040;2023-02-15T01:42:38;33.85;;;13.27;;
28304;SDS011;15569;42.652;23.040;2023-02-15T01:45:05;33.10;;;14.45;;
28304;SDS011;15569;42.652;23.040;2023-02-15T01:47:47;29.20;;;12.85;;
28304;SDS011;15569;42.652;23.040;2023-02-15T01:52:58;33.58;;;15.40;;
28304;SDS011;15569;42.652;23.040;2023-02-15T01:55:30;33.53;;;15.15;;
28304;SDS011;15569;42.652;23.040;2023-02-15T01:57:59;29.98;;;13.32;;
28304;SDS011;15569;42.652;23.040;2023-02-15T02:00:25;26.60;;;13.23;;
28304;SDS011;15569;42.652;23.040;2023-02-15T02:02:52;29.92;;;12.63;;
28304;SDS011;15569;42.652;23.040;2023-02-15T02:05:20;28.50;;;12.50;;
28304;SDS011;15569;42.652;23.040;2023-02-15T02:07:46;32.47;;;14.10;;
28304;SDS011;15569;42.652;23.040;2023-02-15T02:10:14;29.55;;;13.95;;
28304;SDS011;15569;42.652;23.040;2023-02-15T02:12:42;32.65;;;13.35;;
28304;SDS011;15569;42.652;23.040;2023-02-15T02:15:10;29.65;;;13.60;;
28304;SDS011;15569;42.652;23.040;2023-02-15T02:30:35;27.67;;;12.52;;
28304;SDS011;15569;42.652;23.040;2023-02-15T02:39:06;25.48;;;12.10;;
28304;SDS011;15569;42.652;23.040;2023-02-15T02:41:49;32.15;;;14.20;;
28304;SDS011;15569;42.652;23.040;2023-02-15T02:49:39;30.80;;;13.50;;
28304;SDS011;15569;42.652;23.040;2023-02-15T02:52:31;26.30;;;12.07;;
28304;SDS011;15569;42.652;23.040;2023-02-15T02:57:37;29.63;;;12.05;;
28304;SDS011;15569;42.652;23.040;2023-02-15T03:00:07;29.75;;;12.90;;
28304;SDS011;15569;42.652;23.040;2023-02-15T03:02:37;27.10;;;12.80;;
28304;SDS011;15569;42.652;23.040;2023-02-15T03:05:07;34.50;;;14.30;;
28304;SDS011;15569;42.652;23.040;2023-02-15T03:07:38;27.20;;;13.43;;
28304;SDS011;15569;42.652;23.040;2023-02-15T03:10:04;31.65;;;12.82;;
28304;SDS011;15569;42.652;23.040;2023-02-15T03:12:32;24.50;;;12.40;;
28304;SDS011;15569;42.652;23.040;2023-02-15T03:15:04;30.77;;;13.15;;
28304;SDS011;15569;42.652;23.040;2023-02-15T03:17:36;30.90;;;13.02;;
28304;SDS011;15569;42.652;23.040;2023-02-15T03:20:22;33.75;;;13.25;;
28304;SDS011;15569;42.652;23.040;2023-02-15T03:22:54;29.88;;;12.95;;
28304;SDS011;15569;42.652;23.040;2023-02-15T03:25:25;26.65;;;11.57;;
28304;SDS011;15569;42.652;23.040;2023-02-15T03:27:56;25.38;;;11.77;;
28304;SDS011;15569;42.652;23.040;2023-02-15T03:30:26;31.75;;;12.85;;
28304;SDS011;15569;42.652;23.040;2023-02-15T03:32:54;34.47;;;12.82;;
28304;SDS011;15569;42.652;23.040;2023-02-15T03:35:23;25.55;;;12.35;;
28304;SDS011;15569;42.652;23.040;2023-02-15T03:37:54;27.13;;;12.15;;
28304;SDS011;15569;42.652;23.040;2023-02-15T03:40:34;28.25;;;12.55;;
28304;SDS011;15569;42.652;23.040;2023-02-15T03:45:51;24.75;;;12.20;;
28304;SDS011;15569;42.652;23.040;2023-02-15T03:48:25;24.67;;;11.23;;
28304;SDS011;15569;42.652;23.040;2023-02-15T03:50:55;28.60;;;11.68;;
28304;SDS011;15569;42.652;23.040;2023-02-15T03:53:43;33.25;;;13.50;;
28304;SDS011;15569;42.652;23.040;2023-02-15T03:56:12;28.60;;;13.13;;
28304;SDS011;15569;42.652;23.040;2023-02-15T03:58:37;27.10;;;13.95;;
28304;SDS011;15569;42.652;23.040;2023-02-15T04:04:40;26.80;;;11.82;;
28304;SDS011;15569;42.652;23.040;2023-02-15T04:07:07;26.75;;;12.55;;
28304;SDS011;15569;42.652;23.040;2023-02-15T04:09:33;24.77;;;11.57;;
28304;SDS011;15569;42.652;23.040;2023-02-15T04:12:18;25.08;;;10.80;;
28304;SDS011;15569;42.652;23.040;2023-02-15T04:14:44;24.52;;;11.43;;
28304;SDS011;15569;42.652;23.040;2023-02-15T04:17:27;29.95;;;12.55;;
28304;SDS011;15569;42.652;23.040;2023-02-15T04:19:53;36.33;;;13.65;;
28304;SDS011;15569;42.652;23.040;2023-02-15T04:22:37;33.67;;;15.27;;
28304;SDS011;15569;42.652;23.040;2023-02-15T04:25:21;40.22;;;18.17;;
28304;SDS011;15569;42.652;23.040;2023-02-15T04:27:48;28.98;;;14.50;;
28304;SDS011;15569;42.652;23.040;2023-02-15T04:30:15;32.45;;;15.68;;
28304;SDS011;15569;42.652;23.040;2023-02-15T04:32:42;31.75;;;14.50;;
28304;SDS011;15569;42.652;23.040;2023-02-15T04:35:08;29.83;;;14.63;;
28304;SDS011;15569;42.652;23.040;2023-02-15T04:37:34;28.75;;;13.15;;
28304;SDS011;15569;42.652;23.040;2023-02-15T04:39:59;43.45;;;17.17;;
28304;SDS011;15569;42.652;23.040;2023-02-15T04:42:25;29.58;;;14.13;;
28304;SDS011;15569;42.652;23.040;2023-02-15T04:44:51;31.40;;;13.23;;
28304;SDS011;15569;42.652;23.040;2023-02-15T04:47:16;38.50;;;13.60;;
28304;SDS011;15569;42.652;23.040;2023-02-15T04:49:42;30.60;;;12.50;;
28304;SDS011;15569;42.652;23.040;2023-02-15T04:52:07;32.10;;;13.00;;
28304;SDS011;15569;42.652;23.040;2023-02-15T04:54:33;28.83;;;13.45;;
28304;SDS011;15569;42.652;23.040;2023-02-15T04:56:58;30.45;;;13.00;;
28304;SDS011;15569;42.652;23.040;2023-02-15T04:59:23;34.25;;;16.58;;
28304;SDS011;15569;42.652;23.040;2023-02-15T05:01:49;35.00;;;14.98;;
28304;SDS011;15569;42.652;23.040;2023-02-15T05:04:14;33.55;;;14.15;;
28304;SDS011;15569;42.652;23.040;2023-02-15T05:06:39;40.20;;;17.25;;
28304;SDS011;15569;42.652;23.040;2023-02-15T05:09:05;30.95;;;15.75;;
28304;SDS011;15569;42.652;23.040;2023-02-15T05:11:30;25.23;;;13.50;;
28304;SDS011;15569;42.652;23.040;2023-02-15T05:13:55;32.75;;;13.95;;
28304;SDS011;15569;42.652;23.040;2023-02-15T05:16:21;28.70;;;14.15;;
28304;SDS011;15569;42.652;23.040;2023-02-15T05:18:46;31.58;;;13.32;;
28304;SDS011;15569;42.652;23.040;2023-02-15T05:21:12;33.38;;;14.38;;
28304;SDS011;15569;42.652;23.040;2023-02-15T05:23:38;30.38;;;12.45;;
28304;SDS011;15569;42.652;23.040;2023-02-15T05:26:04;28.98;;;13.43;;
28304;SDS011;15569;42.652;23.040;2023-02-15T05:28:48;29.67;;;13.10;;
28304;SDS011;15569;42.652;23.040;2023-02-15T05:31:16;29.42;;;12.70;;
28304;SDS011;15569;42.652;23.040;2023-02-15T05:36:09;24.63;;;11.90;;
28304;SDS011;15569;42.652;23.040;2023-02-15T05:38:35;27.60;;;12.63;;
28304;SDS011;15569;42.652;23.040;2023-02-15T05:41:04;27.83;;;12.90;;
28304;SDS011;15569;42.652;23.040;2023-02-15T05:43:30;31.15;;;12.05;;
28304;SDS011;15569;42.652;23.040;2023-02-15T05:45:56;27.02;;;11.55;;
28304;SDS011;15569;42.652;23.040;2023-02-15T05:48:22;30.40;;;13.00;;
28304;SDS011;15569;42.652;23.040;2023-02-15T05:53:25;30.67;;;13.35;;
28304;SDS011;15569;42.652;23.040;2023-02-15T05:55:52;28.70;;;12.35;;
28304;SDS011;15569;42.652;23.040;2023-02-15T05:58:18;34.55;;;14.60;;
28304;SDS011;15569;42.652;23.040;2023-02-15T06:00:44;28.10;;;13.93;;
28304;SDS011;15569;42.652;23.040;2023-02-15T06:03:09;34.50;;;13.55;;
28304;SDS011;15569;42.652;23.040;2023-02-15T06:05:35;28.95;;;13.75;;
28304;SDS011;15569;42.652;23.040;2023-02-15T06:08:00;28.55;;;14.13;;
28304;SDS011;15569;42.652;23.040;2023-02-15T06:10:25;35.30;;;17.15;;
28304;SDS011;15569;42.652;23.040;2023-02-15T06:12:51;28.48;;;13.52;;
28304;SDS011;15569;42.652;23.040;2023-02-15T06:15:16;29.85;;;12.73;;
28304;SDS011;15569;42.652;23.040;2023-02-15T06:17:42;32.85;;;13.35;;
28304;SDS011;15569;42.652;23.040;2023-02-15T06:20:08;39.10;;;15.75;;
28304;SDS011;15569;42.652;23.040;2023-02-15T06:22:34;42.08;;;16.30;;
28304;SDS011;15569;42.652;23.040;2023-02-15T06:24:59;38.60;;;17.27;;
28304;SDS011;15569;42.652;23.040;2023-02-15T06:27:24;34.05;;;15.77;;
28304;SDS011;15569;42.652;23.040;2023-02-15T06:29:50;35.13;;;15.23;;
28304;SDS011;15569;42.652;23.040;2023-02-15T06:32:15;28.75;;;13.73;;
28304;SDS011;15569;42.652;23.040;2023-02-15T06:34:40;37.30;;;17.00;;
28304;SDS011;15569;42.652;23.040;2023-02-15T06:37:06;35.55;;;14.95;;
28304;SDS011;15569;42.652;23.040;2023-02-15T06:39:33;34.90;;;15.07;;
28304;SDS011;15569;42.652;23.040;2023-02-15T06:41:58;38.13;;;16.52;;
28304;SDS011;15569;42.652;23.040;2023-02-15T06:44:24;41.65;;;18.35;;
28304;SDS011;15569;42.652;23.040;2023-02-15T06:46:49;52.47;;;20.13;;
28304;SDS011;15569;42.652;23.040;2023-02-15T06:49:14;57.58;;;23.15;;
28304;SDS011;15569;42.652;23.040;2023-02-15T06:51:40;49.33;;;20.83;;
28304;SDS011;15569;42.652;23.040;2023-02-15T06:54:05;46.28;;;21.13;;
28304;SDS011;15569;42.652;23.040;2023-02-15T06:56:31;51.10;;;20.08;;
28304;SDS011;15569;42.652;23.040;2023-02-15T06:58:56;57.13;;;22.00;;
28304;SDS011;15569;42.652;23.040;2023-02-15T07:01:21;35.28;;;16.90;;
28304;SDS011;15569;42.652;23.040;2023-02-15T07:03:47;36.90;;;14.93;;
28304;SDS011;15569;42.652;23.040;2023-02-15T07:06:12;35.85;;;15.95;;
28304;SDS011;15569;42.652;23.040;2023-02-15T07:08:38;30.85;;;14.93;;
28304;SDS011;15569;42.652;23.040;2023-02-15T07:11:04;42.53;;;21.50;;
28304;SDS011;15569;42.652;23.040;2023-02-15T07:13:50;143.30;;;68.57;;
28304;SDS011;15569;42.652;23.040;2023-02-15T07:16:17;34.80;;;19.35;;
28304;SDS011;15569;42.652;23.040;2023-02-15T07:18:43;32.17;;;14.85;;
28304;SDS011;15569;42.652;23.040;2023-02-15T07:21:08;29.27;;;14.32;;
28304;SDS011;15569;42.652;23.040;2023-02-15T07:23:37;32.00;;;14.70;;
28304;SDS011;15569;42.652;23.040;2023-02-15T07:26:03;25.88;;;13.52;;
28304;SDS011;15569;42.652;23.040;2023-02-15T07:28:30;27.42;;;12.23;;
28304;SDS011;15569;42.652;23.040;2023-02-15T07:30:56;27.20;;;13.30;;
28304;SDS011;15569;42.652;23.040;2023-02-15T07:33:22;28.42;;;13.15;;
28304;SDS011;15569;42.652;23.040;2023-02-15T07:35:57;34.20;;;14.77;;
28304;SDS011;15569;42.652;23.040;2023-02-15T07:38:24;34.97;;;14.70;;
28304;SDS011;15569;42.652;23.040;2023-02-15T07:40:51;37.85;;;16.50;;
28304;SDS011;15569;42.652;23.040;2023-02-15T07:43:16;26.23;;;11.30;;
28304;SDS011;15569;42.652;23.040;2023-02-15T07:45:42;30.70;;;11.20;;
28304;SDS011;15569;42.652;23.040;2023-02-15T07:48:08;21.25;;;10.80;;
28304;SDS011;15569;42.652;23.040;2023-02-15T07:50:33;22.65;;;11.32;;
28304;SDS011;15569;42.652;23.040;2023-02-15T07:53:00;22.25;;;10.65;;
28304;SDS011;15569;42.652;23.040;2023-02-15T07:55:27;21.23;;;10.02;;
28304;SDS011;15569;42.652;23.040;2023-02-15T07:57:52;26.02;;;11.38;;
28304;SDS011;15569;42.652;23.040;2023-02-15T08:00:19;28.35;;;11.02;;
28304;SDS011;15569;42.652;23.040;2023-02-15T08:02:50;22.33;;;11.57;;
28304;SDS011;15569;42.652;23.040;2023-02-15T08:05:37;24.23;;;9.80;;
28304;SDS011;15569;42.652;23.040;2023-02-15T08:08:03;24.52;;;11.50;;
28304;SDS011;15569;42.652;23.040;2023-02-15T08:10:29;20.77;;;10.48;;
28304;SDS011;15569;42.652;23.040;2023-02-15T08:13:13;21.20;;;10.52;;
28304;SDS011;15569;42.652;23.040;2023-02-15T08:15:39;19.92;;;11.27;;
28304;SDS011;15569;42.652;23.040;2023-02-15T08:18:04;23.33;;;11.02;;
28304;SDS011;15569;42.652;23.040;2023-02-15T08:20:30;19.38;;;10.13;;
28304;SDS011;15569;42.652;23.040;2023-02-15T08:22:56;20.00;;;9.88;;
28304;SDS011;15569;42.652;23.040;2023-02-15T08:25:21;22.88;;;10.57;;
28304;SDS011;15569;42.652;23.040;2023-02-15T08:27:47;18.77;;;10.18;;
28304;SDS011;15569;42.652;23.040;2023-02-15T08:30:12;23.38;;;11.27;;
28304;SDS011;15569;42.652;23.040;2023-02-15T08:32:39;17.35;;;8.75;;
28304;SDS011;15569;42.652;23.040;2023-02-15T08:35:05;22.10;;;11.68;;
28304;SDS011;15569;42.652;23.040;2023-02-15T08:37:30;22.67;;;11.00;;
28304;SDS011;15569;42.652;23.040;2023-02-15T08:39:55;24.20;;;9.57;;
28304;SDS011;15569;42.652;23.040;2023-02-15T08:42:21;19.48;;;9.82;;
28304;SDS011;15569;42.652;23.040;2023-02-15T08:44:46;18.27;;;10.70;;
28304;SDS011;15569;42.652;23.040;2023-02-15T08:47:12;18.08;;;10.52;;
28304;SDS011;15569;42.652;23.040;2023-02-15T08:49:37;19.77;;;10.57;;
28304;SDS011;15569;42.652;23.040;2023-02-15T08:52:02;22.58;;;12.20;;
28304;SDS011;15569;42.652;23.040;2023-02-15T08:54:28;20.48;;;10.95;;
28304;SDS011;15569;42.652;23.040;2023-02-15T08:56:53;24.20;;;11.98;;
28304;SDS011;15569;42.652;23.040;2023-02-15T08:59:20;22.02;;;10.85;;
28304;SDS011;15569;42.652;23.040;2023-02-15T09:01:48;21.27;;;9.55;;
28304;SDS011;15569;42.652;23.040;2023-02-15T09:04:15;23.48;;;10.05;;
28304;SDS011;15569;42.652;23.040;2023-02-15T09:06:41;36.08;;;15.75;;
28304;SDS011;15569;42.652;23.040;2023-02-15T09:09:08;31.20;;;13.57;;
28304;SDS011;15569;42.652;23.040;2023-02-15T09:11:36;22.45;;;11.13;;
28304;SDS011;15569;42.652;23.040;2023-02-15T09:14:05;25.80;;;12.75;;
28304;SDS011;15569;42.652;23.040;2023-02-15T09:16:34;25.27;;;12.68;;
28304;SDS011;15569;42.652;23.040;2023-02-15T09:19:02;25.35;;;12.82;;
28304;SDS011;15569;42.652;23.040;2023-02-15T09:21:29;22.50;;;11.25;;
28304;SDS011;15569;42.652;23.040;2023-02-15T09:23:56;26.90;;;12.35;;
28304;SDS011;15569;42.652;23.040;2023-02-15T09:26:25;24.42;;;12.35;;
28304;SDS011;15569;42.652;23.040;2023-02-15T09:28:52;23.30;;;11.85;;
28304;SDS011;15569;42.652;23.040;2023-02-15T09:31:23;25.48;;;11.15;;
28304;SDS011;15569;42.652;23.040;2023-02-15T09:33:51;23.60;;;11.35;;
28304;SDS011;15569;42.652;23.040;2023-02-15T09:38:58;42.75;;;16.20;;
28304;SDS011;15569;42.652;23.040;2023-02-15T09:58:28;21.67;;;10.90;;
28304;SDS011;15569;42.652;23.040;2023-02-15T10:00:43;23.25;;;10.95;;
28304;SDS011;15569;42.652;23.040;2023-02-15T10:28:22;23.92;;;12.07;;
28304;SDS011;15569;42.652;23.040;2023-02-15T10:30:57;24.33;;;12.15;;
28304;SDS011;15569;42.652;23.040;2023-02-15T10:41:22;28.15;;;14.48;;
28304;SDS011;15569;42.652;23.040;2023-02-15T10:48:55;26.00;;;13.65;;
28304;SDS011;15569;42.652;23.040;2023-02-15T10:54:37;24.00;;;13.05;;
28304;SDS011;15569;42.652;23.040;2023-02-15T10:57:19;24.80;;;12.45;;
28304;SDS011;15569;42.652;23.040;2023-02-15T11:00:03;27.17;;;12.65;;
28304;SDS011;15569;42.652;23.040;2023-02-15T11:07:47;22.05;;;11.65;;
28304;SDS011;15569;42.652;23.040;2023-02-15T11:10:26;28.23;;;14.75;;
28304;SDS011;15569;42.652;23.040;2023-02-15T11:13:02;26.70;;;14.07;;
28304;SDS011;15569;42.652;23.040;2023-02-15T11:15:34;27.95;;;16.20;;
28304;SDS011;15569;42.652;23.040;2023-02-15T11:18:11;19.42;;;10.93;;
28304;SDS011;15569;42.652;23.040;2023-02-15T11:20:54;29.15;;;14.05;;
28304;SDS011;15569;42.652;23.040;2023-02-15T11:23:24;22.27;;;11.52;;
28304;SDS011;15569;42.652;23.040;2023-02-15T11:26:02;26.02;;;13.95;;
28304;SDS011;15569;42.652;23.040;2023-02-15T11:28:34;26.83;;;14.68;;
28304;SDS011;15569;42.652;23.040;2023-02-15T11:31:20;29.85;;;15.30;;
28304;SDS011;15569;42.652;23.040;2023-02-15T11:33:52;23.45;;;13.48;;
28304;SDS011;15569;42.652;23.040;2023-02-15T11:36:23;25.38;;;13.35;;
28304;SDS011;15569;42.652;23.040;2023-02-15T11:38:54;28.50;;;13.87;;
28304;SDS011;15569;42.652;23.040;2023-02-15T11:41:24;22.73;;;13.43;;
28304;SDS011;15569;42.652;23.040;2023-02-15T11:43:56;24.52;;;12.45;;
28304;SDS011;15569;42.652;23.040;2023-02-15T11:46:28;22.63;;;11.57;;
28304;SDS011;15569;42.652;23.040;2023-02-15T11:48:53;23.58;;;12.73;;
28304;SDS011;15569;42.652;23.040;2023-02-15T11:51:20;28.38;;;13.60;;
28304;SDS011;15569;42.652;23.040;2023-02-15T11:53:47;23.38;;;13.02;;
28304;SDS011;15569;42.652;23.040;2023-02-15T11:56:17;22.90;;;12.55;;
28304;SDS011;15569;42.652;23.040;2023-02-15T11:59:03;22.20;;;12.43;;
28304;SDS011;15569;42.652;23.040;2023-02-15T12:01:35;25.38;;;13.50;;
28304;SDS011;15569;42.652;23.040;2023-02-15T12:04:08;26.58;;;12.73;;
28304;SDS011;15569;42.652;23.040;2023-02-15T12:06:42;25.63;;;13.07;;
28304;SDS011;15569;42.652;23.040;2023-02-15T12:12:27;26.60;;;13.88;;
28304;SDS011;15569;42.652;23.040;2023-02-15T12:14:55;19.60;;;12.02;;
28304;SDS011;15569;42.652;23.040;2023-02-15T12:17:23;23.83;;;12.80;;
28304;SDS011;15569;42.652;23.040;2023-02-15T12:19:52;23.02;;;12.93;;
28304;SDS011;15569;42.652;23.040;2023-02-15T12:24:55;19.55;;;11.88;;
28304;SDS011;15569;42.652;23.040;2023-02-15T12:27:29;22.63;;;12.35;;
28304;SDS011;15569;42.652;23.040;2023-02-15T12:30:00;19.52;;;11.65;;
28304;SDS011;15569;42.652;23.040;2023-02-15T12:32:31;21.70;;;11.90;;
28304;SDS011;15569;42.652;23.040;2023-02-15T12:35:01;18.95;;;11.63;;
28304;SDS011;15569;42.652;23.040;2023-02-15T12:37:33;18.52;;;11.63;;
28304;SDS011;15569;42.652;23.040;2023-02-15T12:39:59;20.70;;;11.68;;
28304;SDS011;15569;42.652;23.040;2023-02-15T12:42:27;21.48;;;12.48;;
28304;SDS011;15569;42.652;23.040;2023-02-15T12:47:46;24.20;;;13.70;;
28304;SDS011;15569;42.652;23.040;2023-02-15T12:52:42;25.95;;;14.57;;
28304;SDS011;15569;42.652;23.040;2023-02-15T12:57:49;19.73;;;12.38;;
28304;SDS011;15569;42.652;23.040;2023-02-15T13:00:30;17.25;;;10.98;;
28304;SDS011;15569;42.652;23.040;2023-02-15T13:02:57;17.83;;;11.50;;
28304;SDS011;15569;42.652;23.040;2023-02-15T13:40:53;22.02;;;13.52;;
28304;SDS011;15569;42.652;23.040;2023-02-15T13:43:35;23.42;;;13.70;;
28304;SDS011;15569;42.652;23.040;2023-02-15T13:46:13;21.25;;;12.93;;
28304;SDS011;15569;42.652;23.040;2023-02-15T13:48:51;18.52;;;11.85;;
28304;SDS011;15569;42.652;23.040;2023-02-15T13:54:05;18.05;;;11.73;;
28304;SDS011;15569;42.652;23.040;2023-02-15T14:07:47;23.35;;;14.35;;
28304;SDS011;15569;42.652;23.040;2023-02-15T14:10:44;23.88;;;13.48;;
28304;SDS011;15569;42.652;23.040;2023-02-15T14:21:31;22.13;;;13.90;;
28304;SDS011;15569;42.652;23.040;2023-02-15T14:24:37;24.65;;;13.90;;
28304;SDS011;15569;42.652;23.040;2023-02-15T14:27:21;20.92;;;13.20;;
28304;SDS011;15569;42.652;23.040;2023-02-15T14:30:09;20.77;;;13.23;;
28304;SDS011;15569;42.652;23.040;2023-02-15T14:32:45;22.98;;;13.38;;
28304;SDS011;15569;42.652;23.040;2023-02-15T14:35:18;22.23;;;13.73;;
28304;SDS011;15569;42.652;23.040;2023-02-15T14:37:51;22.65;;;13.38;;
28304;SDS011;15569;42.652;23.040;2023-02-15T14:43:23;22.95;;;14.18;;
28304;SDS011;15569;42.652;23.040;2023-02-15T14:49:14;25.77;;;15.90;;
28304;SDS011;15569;42.652;23.040;2023-02-15T14:54:55;27.83;;;17.08;;
28304;SDS011;15569;42.652;23.040;2023-02-15T14:59:37;28.95;;;16.65;;
28304;SDS011;15569;42.652;23.040;2023-02-15T15:04:40;29.42;;;17.00;;
28304;SDS011;15569;42.652;23.040;2023-02-15T15:07:09;33.10;;;16.52;;
28304;SDS011;15569;42.652;23.040;2023-02-15T15:09:44;27.23;;;16.48;;
28304;SDS011;15569;42.652;23.040;2023-02-15T15:14:51;27.13;;;14.93;;
28304;SDS011;15569;42.652;23.040;2023-02-15T15:20:05;23.10;;;14.73;;
28304;SDS011;15569;42.652;23.040;2023-02-15T15:22:38;23.77;;;14.10;;
28304;SDS011;15569;42.652;23.040;2023-02-15T15:25:10;30.40;;;16.25;;
28304;SDS011;15569;42.652;23.040;2023-02-15T15:27:36;27.00;;;16.10;;
28304;SDS011;15569;42.652;23.040;2023-02-15T15:35:35;34.03;;;17.63;;
28304;SDS011;15569;42.652;23.040;2023-02-15T15:48:55;36.92;;;18.50;;
28304;SDS011;15569;42.652;23.040;2023-02-15T15:51:30;42.67;;;20.30;;
28304;SDS011;15569;42.652;23.040;2023-02-15T15:53:58;38.95;;;18.15;;
28304;SDS011;15569;42.652;23.040;2023-02-15T15:56:31;37.05;;;19.95;;
28304;SDS011;15569;42.652;23.040;2023-02-15T15:59:03;57.03;;;25.48;;
28304;SDS011;15569;42.652;23.040;2023-02-15T16:01:41;42.22;;;20.60;;
28304;SDS011;15569;42.652;23.040;2023-02-15T16:04:12;48.53;;;22.00;;
28304;SDS011;15569;42.652;23.040;2023-02-15T16:06:39;46.50;;;18.40;;
28304;SDS011;15569;42.652;23.040;2023-02-15T16:11:48;48.33;;;21.08;;
28304;SDS011;15569;42.652;23.040;2023-02-15T16:14:26;44.13;;;20.02;;
28304;SDS011;15569;42.652;23.040;2023-02-15T16:16:56;61.42;;;24.85;;
28304;SDS011;15569;42.652;23.040;2023-02-15T16:19:26;395.48;;;135.38;;
28304;SDS011;15569;42.652;23.040;2023-02-15T16:21:54;196.82;;;73.13;;
28304;SDS011;15569;42.652;23.040;2023-02-15T16:29:32;50.92;;;26.45;;
28304;SDS011;15569;42.652;23.040;2023-02-15T16:39:09;212.32;;;73.75;;
28304;SDS011;15569;42.652;23.040;2023-02-15T16:41:42;89.53;;;34.88;;
28304;SDS011;15569;42.652;23.040;2023-02-15T16:44:16;307.23;;;85.05;;
28304;SDS011;15569;42.652;23.040;2023-02-15T16:46:45;108.10;;;37.97;;
28304;SDS011;15569;42.652;23.040;2023-02-15T16:49:17;97.30;;;37.50;;
28304;SDS011;15569;42.652;23.040;2023-02-15T16:51:53;104.68;;;36.30;;
28304;SDS011;15569;42.652;23.040;2023-02-15T16:54:22;150.80;;;44.33;;
28304;SDS011;15569;42.652;23.040;2023-02-15T16:56:49;131.20;;;41.75;;
28304;SDS011;15569;42.652;23.040;2023-02-15T17:01:57;117.10;;;42.88;;
28304;SDS011;15569;42.652;23.040;2023-02-15T17:04:27;65.32;;;27.48;;
28304;SDS011;15569;42.652;23.040;2023-02-15T17:09:49;69.20;;;28.45;;
28304;SDS011;15569;42.652;23.040;2023-02-15T17:18:19;85.68;;;32.83;;
28304;SDS011;15569;42.652;23.040;2023-02-15T17:20:50;64.97;;;24.58;;
28304;SDS011;15569;42.652;23.040;2023-02-15T17:28:50;224.45;;;68.60;;
28304;SDS011;15569;42.652;23.040;2023-02-15T17:31:19;280.55;;;85.70;;
28304;SDS011;15569;42.652;23.040;2023-02-15T17:33:45;179.48;;;62.17;;
28304;SDS011;15569;42.652;23.040;2023-02-15T17:36:18;139.30;;;58.75;;
28304;SDS011;15569;42.652;23.040;2023-02-15T17:39:18;78.75;;;33.50;;
28304;SDS011;15569;42.652;23.040;2023-02-15T17:41:44;80.88;;;29.73;;
28304;SDS011;15569;42.652;23.040;2023-02-15T17:44:09;67.22;;;28.90;;
28304;SDS011;15569;42.652;23.040;2023-02-15T17:46:39;66.25;;;23.88;;
28304;SDS011;15569;42.652;23.040;2023-02-15T17:49:05;67.63;;;25.20;;
28304;SDS011;15569;42.652;23.040;2023-02-15T17:51:31;51.17;;;20.63;;
28304;SDS011;15569;42.652;23.040;2023-02-15T17:53:59;48.33;;;19.77;;
28304;SDS011;15569;42.652;23.040;2023-02-15T17:56:44;67.53;;;22.25;;
28304;SDS011;15569;42.652;23.040;2023-02-15T17:59:09;58.63;;;23.15;;
28304;SDS011;15569;42.652;23.040;2023-02-15T18:01:37;52.40;;;21.50;;
28304;SDS011;15569;42.652;23.040;2023-02-15T18:04:33;50.13;;;20.50;;
28304;SDS011;15569;42.652;23.040;2023-02-15T18:07:19;48.92;;;21.65;;
28304;SDS011;15569;42.652;23.040;2023-02-15T18:10:22;81.22;;;34.38;;
28304;SDS011;15569;42.652;23.040;2023-02-15T18:13:06;88.95;;;36.83;;
28304;SDS011;15569;42.652;23.040;2023-02-15T18:15:31;122.95;;;50.70;;
28304;SDS011;15569;42.652;23.040;2023-02-15T18:17:57;72.35;;;29.08;;
28304;SDS011;15569;42.652;23.040;2023-02-15T18:20:33;67.97;;;28.45;;
28304;SDS011;15569;42.652;23.040;2023-02-15T18:23:04;75.50;;;27.88;;
28304;SDS011;15569;42.652;23.040;2023-02-15T18:25:30;73.75;;;31.05;;
28304;SDS011;15569;42.652;23.040;2023-02-15T18:27:55;84.47;;;34.30;;
28304;SDS011;15569;42.652;23.040;2023-02-15T18:30:21;66.32;;;30.38;;